LPE0021 SEQM-SEGU
Flight info
| Callsign | LPE0021 |
|---|---|
| Flight time | 0h 51m |
| Altitude | 22000 |
| Route | TEMOX3B TEMOX |
| Aircraft | A320/M-SDE3FGHIRWY/LB1 |
Departure
| Time | 2026-04-23 15:57 |
|---|---|
| Airport | Mariscal Sucre International Airport (SEQM) |
Arrival
| Time | 2026-04-23 16:48 |
|---|---|
| Airport | José Joaquín de Olmedo International Airport (SEGU) |
| Time | Latitude | Longitude | Altitude | Speed | Heading |
|---|---|---|---|---|---|
| 2026-04-23 15:19 | -0.12462 | -78.35722 | 7893 ft | 0 kts | 268° |
| 2026-04-23 15:41 | -0.12462 | -78.35719 | 7902 ft | 1 kts | 268° |
| 2026-04-23 15:42 | -0.12462 | -78.35702 | 7902 ft | 3 kts | 267° |
| 2026-04-23 15:42 | -0.12455 | -78.35678 | 7902 ft | 5 kts | 226° |
| 2026-04-23 15:42 | -0.12446 | -78.35671 | 7902 ft | 0 kts | 201° |
| 2026-04-23 15:42 | -0.12443 | -78.35669 | 7901 ft | 0 kts | 197° |
| 2026-04-23 15:43 | -0.12458 | -78.35671 | 7902 ft | 0 kts | 184° |
| 2026-04-23 15:45 | -0.12457 | -78.35671 | 7902 ft | 0 kts | 184° |
| 2026-04-23 15:46 | -0.12522 | -78.35671 | 7906 ft | 13 kts | 177° |
| 2026-04-23 15:46 | -0.12598 | -78.35667 | 7911 ft | 8 kts | 178° |
| 2026-04-23 15:46 | -0.12648 | -78.35666 | 7913 ft | 6 kts | 178° |
| 2026-04-23 15:46 | -0.12681 | -78.35649 | 7915 ft | 5 kts | 121° |
| 2026-04-23 15:47 | -0.12701 | -78.35617 | 7915 ft | 5 kts | 133° |
| 2026-04-23 15:47 | -0.12727 | -78.35605 | 7917 ft | 3 kts | 162° |
| 2026-04-23 15:47 | -0.12753 | -78.35600 | 7918 ft | 2 kts | 174° |
| 2026-04-23 15:47 | -0.12787 | -78.35598 | 7920 ft | 9 kts | 178° |
| 2026-04-23 15:48 | -0.12863 | -78.35595 | 7926 ft | 9 kts | 178° |
| 2026-04-23 15:48 | -0.12915 | -78.35593 | 7929 ft | 5 kts | 178° |
| 2026-04-23 15:48 | -0.12942 | -78.35592 | 7930 ft | 1 kts | 178° |
| 2026-04-23 15:48 | -0.13008 | -78.35590 | 7934 ft | 24 kts | 178° |
| 2026-04-23 15:49 | -0.13163 | -78.35583 | 7943 ft | 19 kts | 177° |
| 2026-04-23 15:49 | -0.13282 | -78.35577 | 7950 ft | 14 kts | 177° |
| 2026-04-23 15:49 | -0.13371 | -78.35574 | 7955 ft | 10 kts | 178° |
| 2026-04-23 15:49 | -0.13469 | -78.35571 | 7962 ft | 13 kts | 177° |
| 2026-04-23 15:50 | -0.13476 | -78.35571 | 7962 ft | 0 kts | 177° |
| 2026-04-23 15:50 | -0.13475 | -78.35571 | 7962 ft | 0 kts | 178° |
| 2026-04-23 15:51 | -0.13474 | -78.35571 | 7962 ft | 0 kts | 177° |
| 2026-04-23 15:52 | -0.13473 | -78.35571 | 7962 ft | 0 kts | 177° |
| 2026-04-23 15:52 | -0.13543 | -78.35568 | 7966 ft | 19 kts | 177° |
| 2026-04-23 15:52 | -0.13598 | -78.35518 | 7969 ft | 0 kts | 72° |
| 2026-04-23 15:53 | -0.13525 | -78.35463 | 7967 ft | 19 kts | 24° |
| 2026-04-23 15:53 | -0.13438 | -78.35396 | 7963 ft | 11 kts | 154° |
| 2026-04-23 15:53 | -0.13493 | -78.35400 | 7966 ft | 7 kts | 177° |
| 2026-04-23 15:53 | -0.13545 | -78.35396 | 7969 ft | 8 kts | 174° |
| 2026-04-23 15:54 | -0.13706 | -78.35386 | 7978 ft | 26 kts | 178° |
| 2026-04-23 15:54 | -0.13877 | -78.35378 | 7988 ft | 21 kts | 178° |
| 2026-04-23 15:54 | -0.14011 | -78.35371 | 7994 ft | 17 kts | 177° |
| 2026-04-23 15:54 | -0.14120 | -78.35368 | 8000 ft | 14 kts | 178° |
| 2026-04-23 15:55 | -0.14206 | -78.35371 | 8004 ft | 10 kts | 199° |
| 2026-04-23 15:55 | -0.14235 | -78.35371 | 8005 ft | 3 kts | 27° |
| 2026-04-23 15:55 | -0.14210 | -78.35366 | 8004 ft | 0 kts | 3° |
| 2026-04-23 15:56 | -0.14130 | -78.35370 | 8000 ft | 43 kts | 357° |
| 2026-04-23 15:57 | -0.13549 | -78.35394 | 7969 ft | 121 kts | 357° |
| 2026-04-23 15:57 | -0.12453 | -78.35438 | 7928 ft | 185 kts | 357° |
| 2026-04-23 15:57 | -0.11178 | -78.35557 | 8599 ft | 186 kts | 356° |
| 2026-04-23 15:57 | -0.09911 | -78.35657 | 9131 ft | 183 kts | 356° |
| 2026-04-23 15:58 | -0.08586 | -78.35730 | 9454 ft | 195 kts | 356° |
| 2026-04-23 15:58 | -0.07168 | -78.35800 | 9747 ft | 211 kts | 357° |
| 2026-04-23 15:58 | -0.05659 | -78.35862 | 10039 ft | 226 kts | 356° |
| 2026-04-23 15:58 | -0.04021 | -78.35921 | 10342 ft | 243 kts | 356° |
| 2026-04-23 15:59 | -0.02272 | -78.35983 | 10651 ft | 260 kts | 357° |
| 2026-04-23 15:59 | -0.00392 | -78.36061 | 10960 ft | 277 kts | 356° |
| 2026-04-23 15:59 | 0.01602 | -78.36202 | 11257 ft | 294 kts | 347° |
| 2026-04-23 15:59 | 0.03487 | -78.37112 | 11526 ft | 309 kts | 317° |
| 2026-04-23 16:00 | 0.04748 | -78.38890 | 11813 ft | 325 kts | 291° |
| 2026-04-23 16:00 | 0.05118 | -78.41132 | 12075 ft | 340 kts | 265° |
| 2026-04-23 16:00 | 0.04416 | -78.43411 | 12423 ft | 353 kts | 242° |
| 2026-04-23 16:00 | 0.03205 | -78.45570 | 13076 ft | 354 kts | 241° |
| 2026-04-23 16:01 | 0.02032 | -78.47714 | 13696 ft | 356 kts | 242° |
| 2026-04-23 16:01 | 0.00856 | -78.49918 | 14321 ft | 358 kts | 242° |
| 2026-04-23 16:01 | -0.00298 | -78.52103 | 14839 ft | 361 kts | 243° |
| 2026-04-23 16:01 | -0.01473 | -78.54334 | 15318 ft | 364 kts | 243° |
| 2026-04-23 16:02 | -0.02660 | -78.56590 | 15836 ft | 367 kts | 242° |
| 2026-04-23 16:02 | -0.03979 | -78.58784 | 16305 ft | 371 kts | 236° |
| 2026-04-23 16:02 | -0.05551 | -78.60791 | 16749 ft | 374 kts | 229° |
| 2026-04-23 16:02 | -0.07367 | -78.62676 | 17207 ft | 376 kts | 225° |
| 2026-04-23 16:03 | -0.09259 | -78.64521 | 17666 ft | 379 kts | 225° |
| 2026-04-23 16:03 | -0.11137 | -78.66341 | 18112 ft | 381 kts | 225° |
| 2026-04-23 16:03 | -0.13062 | -78.68212 | 18551 ft | 383 kts | 225° |
| 2026-04-23 16:03 | -0.14962 | -78.70063 | 18934 ft | 386 kts | 225° |
| 2026-04-23 16:04 | -0.16908 | -78.71964 | 19362 ft | 389 kts | 224° |
| 2026-04-23 16:04 | -0.18836 | -78.73849 | 19770 ft | 390 kts | 224° |
| 2026-04-23 16:04 | -0.20784 | -78.75757 | 20169 ft | 393 kts | 224° |
| 2026-04-23 16:04 | -0.22738 | -78.77668 | 20521 ft | 396 kts | 224° |
| 2026-04-23 16:05 | -0.24049 | -78.78951 | 20755 ft | 398 kts | 224° |
| 2026-04-23 16:05 | -0.26701 | -78.81550 | 21250 ft | 401 kts | 224° |
| 2026-04-23 16:05 | -0.28709 | -78.83515 | 21596 ft | 404 kts | 224° |
| 2026-04-23 16:05 | -0.30734 | -78.85498 | 21951 ft | 407 kts | 224° |
| 2026-04-23 16:06 | -0.32742 | -78.87464 | 22268 ft | 409 kts | 224° |
| 2026-04-23 16:06 | -0.34777 | -78.89455 | 22316 ft | 408 kts | 224° |
| 2026-04-23 16:06 | -0.36789 | -78.91427 | 22327 ft | 407 kts | 224° |
| 2026-04-23 16:06 | -0.38830 | -78.93425 | 22327 ft | 406 kts | 224° |
| 2026-04-23 16:07 | -0.40849 | -78.95405 | 22335 ft | 407 kts | 223° |
| 2026-04-23 16:07 | -0.42875 | -78.97389 | 22331 ft | 407 kts | 223° |
| 2026-04-23 16:07 | -0.44872 | -78.99349 | 22335 ft | 407 kts | 223° |
| 2026-04-23 16:07 | -0.46923 | -79.01360 | 22347 ft | 409 kts | 223° |
| 2026-04-23 16:08 | -0.48943 | -79.03338 | 22339 ft | 409 kts | 223° |
| 2026-04-23 16:08 | -0.50967 | -79.05322 | 22330 ft | 411 kts | 223° |
| 2026-04-23 16:08 | -0.53045 | -79.07358 | 22331 ft | 413 kts | 223° |
| 2026-04-23 16:08 | -0.55085 | -79.09355 | 22319 ft | 416 kts | 222° |
| 2026-04-23 16:09 | -0.57243 | -79.11317 | 22310 ft | 416 kts | 218° |
| 2026-04-23 16:09 | -0.59528 | -79.13090 | 22286 ft | 415 kts | 213° |
| 2026-04-23 16:09 | -0.61940 | -79.14667 | 22276 ft | 414 kts | 209° |
| 2026-04-23 16:09 | -0.64463 | -79.16123 | 22246 ft | 416 kts | 208° |
| 2026-04-23 16:10 | -0.66971 | -79.17541 | 22251 ft | 418 kts | 207° |
| 2026-04-23 16:10 | -0.69506 | -79.18969 | 22232 ft | 419 kts | 208° |
| 2026-04-23 16:10 | -0.72073 | -79.20418 | 22208 ft | 419 kts | 208° |
| 2026-04-23 16:10 | -0.74614 | -79.21857 | 22206 ft | 420 kts | 207° |
| 2026-04-23 16:11 | -0.77155 | -79.23297 | 22199 ft | 420 kts | 208° |
| 2026-04-23 16:11 | -0.79721 | -79.24751 | 22171 ft | 420 kts | 207° |
| 2026-04-23 16:11 | -0.82252 | -79.26187 | 22154 ft | 420 kts | 207° |
| 2026-04-23 16:11 | -0.84797 | -79.27630 | 22155 ft | 420 kts | 207° |
| 2026-04-23 16:12 | -0.87344 | -79.29075 | 22154 ft | 421 kts | 207° |
| 2026-04-23 16:12 | -0.89922 | -79.30536 | 22142 ft | 422 kts | 207° |
| 2026-04-23 16:12 | -0.92474 | -79.31985 | 22156 ft | 422 kts | 208° |
| 2026-04-23 16:12 | -0.95032 | -79.33434 | 22147 ft | 422 kts | 208° |
| 2026-04-23 16:13 | -0.97617 | -79.34901 | 22137 ft | 423 kts | 208° |
| 2026-04-23 16:13 | -1.02743 | -79.37811 | 22115 ft | 423 kts | 208° |
| 2026-04-23 16:13 | -1.05309 | -79.39267 | 22134 ft | 424 kts | 208° |
| 2026-04-23 16:14 | -1.07881 | -79.40727 | 22137 ft | 423 kts | 208° |
| 2026-04-23 16:14 | -1.10470 | -79.42197 | 22123 ft | 423 kts | 208° |
| 2026-04-23 16:14 | -1.13033 | -79.43652 | 22107 ft | 424 kts | 208° |
| 2026-04-23 16:14 | -1.15599 | -79.45107 | 22087 ft | 423 kts | 208° |
| 2026-04-23 16:15 | -1.18171 | -79.46568 | 22069 ft | 423 kts | 207° |
| 2026-04-23 16:15 | -1.20762 | -79.48039 | 22078 ft | 422 kts | 208° |
| 2026-04-23 16:15 | -1.23308 | -79.49484 | 22055 ft | 422 kts | 208° |
| 2026-04-23 16:15 | -1.25879 | -79.50943 | 22037 ft | 422 kts | 208° |
| 2026-04-23 16:16 | -1.28434 | -79.52393 | 22027 ft | 422 kts | 208° |
| 2026-04-23 16:16 | -1.31018 | -79.53859 | 22024 ft | 421 kts | 208° |
| 2026-04-23 16:16 | -1.33573 | -79.55310 | 22051 ft | 422 kts | 208° |
| 2026-04-23 16:16 | -1.36137 | -79.56767 | 22040 ft | 422 kts | 208° |
| 2026-04-23 16:17 | -1.38669 | -79.58205 | 22053 ft | 422 kts | 208° |
| 2026-04-23 16:17 | -1.41231 | -79.59660 | 22032 ft | 422 kts | 208° |
| 2026-04-23 16:17 | -1.43810 | -79.61125 | 22039 ft | 422 kts | 208° |
| 2026-04-23 16:17 | -1.46366 | -79.62579 | 22039 ft | 422 kts | 208° |
| 2026-04-23 16:18 | -1.48931 | -79.64036 | 21952 ft | 419 kts | 207° |
| 2026-04-23 16:18 | -1.51472 | -79.65459 | 21337 ft | 420 kts | 207° |
| 2026-04-23 16:18 | -1.54031 | -79.66844 | 20427 ft | 425 kts | 207° |
| 2026-04-23 16:18 | -1.56661 | -79.68256 | 19782 ft | 422 kts | 207° |
| 2026-04-23 16:19 | -1.59242 | -79.69643 | 19259 ft | 416 kts | 208° |
| 2026-04-23 16:19 | -1.61793 | -79.71020 | 18761 ft | 411 kts | 208° |
| 2026-04-23 16:19 | -1.64278 | -79.72362 | 18239 ft | 406 kts | 208° |
| 2026-04-23 16:19 | -1.66775 | -79.73712 | 17720 ft | 401 kts | 209° |
| 2026-04-23 16:20 | -1.69193 | -79.75021 | 17197 ft | 397 kts | 209° |
| 2026-04-23 16:20 | -1.71641 | -79.76347 | 16665 ft | 393 kts | 209° |
| 2026-04-23 16:20 | -1.74034 | -79.77647 | 16133 ft | 390 kts | 209° |
| 2026-04-23 16:20 | -1.76396 | -79.78929 | 15575 ft | 388 kts | 209° |
| 2026-04-23 16:21 | -1.78786 | -79.80225 | 15000 ft | 385 kts | 209° |
| 2026-04-23 16:21 | -1.81122 | -79.81492 | 14428 ft | 382 kts | 209° |
| 2026-04-23 16:21 | -1.83476 | -79.82768 | 13912 ft | 380 kts | 209° |
| 2026-04-23 16:21 | -1.85771 | -79.84011 | 13516 ft | 374 kts | 209° |
| 2026-04-23 16:22 | -1.88048 | -79.85246 | 13115 ft | 367 kts | 209° |
| 2026-04-23 16:22 | -1.90267 | -79.86448 | 12727 ft | 360 kts | 209° |
| 2026-04-23 16:22 | -1.92461 | -79.87637 | 12329 ft | 354 kts | 208° |
| 2026-04-23 16:22 | -1.94617 | -79.88806 | 11971 ft | 347 kts | 208° |
| 2026-04-23 16:23 | -1.96711 | -79.89941 | 11587 ft | 342 kts | 208° |
| 2026-04-23 16:23 | -1.98807 | -79.91076 | 11202 ft | 337 kts | 208° |
| 2026-04-23 16:23 | -2.00865 | -79.92192 | 10827 ft | 331 kts | 208° |
| 2026-04-23 16:23 | -2.02874 | -79.93280 | 10455 ft | 326 kts | 208° |
| 2026-04-23 16:24 | -2.04869 | -79.94362 | 10088 ft | 321 kts | 208° |
| 2026-04-23 16:24 | -2.06799 | -79.95407 | 9738 ft | 316 kts | 208° |
| 2026-04-23 16:24 | -2.08739 | -79.96459 | 9396 ft | 311 kts | 208° |
| 2026-04-23 16:24 | -2.10621 | -79.97480 | 9063 ft | 307 kts | 208° |
| 2026-04-23 16:25 | -2.12507 | -79.98503 | 8742 ft | 302 kts | 208° |
| 2026-04-23 16:25 | -2.14346 | -79.99501 | 8429 ft | 297 kts | 208° |
| 2026-04-23 16:25 | -2.16143 | -80.00474 | 8132 ft | 293 kts | 208° |
| 2026-04-23 16:25 | -2.17928 | -80.01442 | 7850 ft | 288 kts | 208° |
| 2026-04-23 16:26 | -2.19703 | -80.02404 | 7574 ft | 284 kts | 208° |
| 2026-04-23 16:26 | -2.21425 | -80.03338 | 7238 ft | 282 kts | 208° |
| 2026-04-23 16:26 | -2.23145 | -80.04269 | 6887 ft | 280 kts | 208° |
| 2026-04-23 16:26 | -2.24918 | -80.05070 | 6632 ft | 274 kts | 191° |
| 2026-04-23 16:27 | -2.26766 | -80.04951 | 6376 ft | 266 kts | 156° |
| 2026-04-23 16:27 | -2.28173 | -80.03831 | 6112 ft | 260 kts | 122° |
| 2026-04-23 16:27 | -2.28947 | -80.02209 | 5861 ft | 255 kts | 112° |
| 2026-04-23 16:27 | -2.29625 | -80.00594 | 5630 ft | 251 kts | 114° |
| 2026-04-23 16:28 | -2.30374 | -79.99029 | 5392 ft | 248 kts | 116° |
| 2026-04-23 16:28 | -2.30946 | -79.97416 | 5109 ft | 244 kts | 91° |
| 2026-04-23 16:28 | -2.30525 | -79.95825 | 4834 ft | 240 kts | 53° |
| 2026-04-23 16:28 | -2.29205 | -79.94857 | 4568 ft | 237 kts | 17° |
| 2026-04-23 16:29 | -2.27632 | -79.94492 | 4359 ft | 233 kts | 15° |
| 2026-04-23 16:29 | -2.26079 | -79.93992 | 4130 ft | 229 kts | 22° |
| 2026-04-23 16:29 | -2.24638 | -79.93354 | 3910 ft | 223 kts | 26° |
| 2026-04-23 16:29 | -2.23288 | -79.92659 | 3554 ft | 215 kts | 28° |
| 2026-04-23 16:30 | -2.21987 | -79.91941 | 3188 ft | 211 kts | 28° |
| 2026-04-23 16:30 | -2.20724 | -79.91227 | 2841 ft | 207 kts | 28° |
| 2026-04-23 16:30 | -2.19482 | -79.90518 | 2591 ft | 196 kts | 29° |
| 2026-04-23 16:30 | -2.18332 | -79.89857 | 2401 ft | 183 kts | 29° |
| 2026-04-23 16:31 | -2.17252 | -79.89236 | 2313 ft | 174 kts | 29° |
| 2026-04-23 16:31 | -2.16220 | -79.88642 | 2575 ft | 171 kts | 29° |
| 2026-04-23 16:31 | -2.15233 | -79.88067 | 2899 ft | 160 kts | 29° |
| 2026-04-23 16:31 | -2.14195 | -79.87463 | 3008 ft | 185 kts | 29° |
| 2026-04-23 16:32 | -2.12995 | -79.86772 | 2990 ft | 213 kts | 30° |
| 2026-04-23 16:32 | -2.11653 | -79.86012 | 2996 ft | 222 kts | 30° |
| 2026-04-23 16:32 | -2.10286 | -79.85244 | 2996 ft | 223 kts | 29° |
| 2026-04-23 16:32 | -2.08934 | -79.84483 | 2998 ft | 222 kts | 29° |
| 2026-04-23 16:33 | -2.07598 | -79.83729 | 2998 ft | 221 kts | 29° |
| 2026-04-23 16:33 | -2.06240 | -79.82959 | 2996 ft | 222 kts | 29° |
| 2026-04-23 16:33 | -2.04903 | -79.82198 | 3001 ft | 221 kts | 29° |
| 2026-04-23 16:33 | -2.03545 | -79.81422 | 3001 ft | 222 kts | 28° |
| 2026-04-23 16:34 | -2.02097 | -79.80959 | 2975 ft | 222 kts | 356° |
| 2026-04-23 16:34 | -2.00683 | -79.81506 | 2997 ft | 221 kts | 317° |
| 2026-04-23 16:34 | -1.99821 | -79.82784 | 3014 ft | 223 kts | 288° |
| 2026-04-23 16:34 | -1.99706 | -79.84319 | 3002 ft | 224 kts | 258° |
| 2026-04-23 16:35 | -2.00394 | -79.85716 | 2997 ft | 227 kts | 227° |
| 2026-04-23 16:35 | -2.01605 | -79.86710 | 3000 ft | 227 kts | 218° |
| 2026-04-23 16:35 | -2.02887 | -79.87671 | 3000 ft | 227 kts | 217° |
| 2026-04-23 16:35 | -2.04135 | -79.88619 | 2920 ft | 225 kts | 218° |
| 2026-04-23 16:36 | -2.05379 | -79.89578 | 2616 ft | 227 kts | 218° |
| 2026-04-23 16:36 | -2.06643 | -79.90561 | 2327 ft | 228 kts | 218° |
| 2026-04-23 16:36 | -2.07894 | -79.91537 | 2046 ft | 229 kts | 219° |
| 2026-04-23 16:36 | -2.09147 | -79.92518 | 1795 ft | 228 kts | 219° |
| 2026-04-23 16:37 | -2.10391 | -79.93495 | 1703 ft | 227 kts | 219° |
| 2026-04-23 16:37 | -2.11639 | -79.94476 | 1696 ft | 227 kts | 219° |
| 2026-04-23 16:37 | -2.12880 | -79.95452 | 1693 ft | 229 kts | 219° |
| 2026-04-23 16:37 | -2.14142 | -79.96445 | 1720 ft | 231 kts | 219° |
| 2026-04-23 16:38 | -2.15429 | -79.97457 | 2167 ft | 237 kts | 219° |
| 2026-04-23 16:38 | -2.16716 | -79.98468 | 2997 ft | 233 kts | 219° |
| 2026-04-23 16:38 | -2.17979 | -79.99463 | 3579 ft | 231 kts | 219° |
| 2026-04-23 16:38 | -2.19251 | -80.00464 | 3918 ft | 232 kts | 218° |
| 2026-04-23 16:39 | -2.20525 | -80.01466 | 3989 ft | 233 kts | 218° |
| 2026-04-23 16:39 | -2.21791 | -80.02462 | 3984 ft | 232 kts | 218° |
| 2026-04-23 16:39 | -2.23075 | -80.03471 | 3988 ft | 231 kts | 218° |
| 2026-04-23 16:39 | -2.24348 | -80.04470 | 3993 ft | 231 kts | 218° |
| 2026-04-23 16:40 | -2.25732 | -80.05298 | 3995 ft | 233 kts | 199° |
| 2026-04-23 16:40 | -2.27324 | -80.05573 | 3996 ft | 232 kts | 177° |
| 2026-04-23 16:40 | -2.28916 | -80.05310 | 3995 ft | 232 kts | 165° |
| 2026-04-23 16:40 | -2.30492 | -80.04876 | 3982 ft | 231 kts | 163° |
| 2026-04-23 16:41 | -2.32042 | -80.04436 | 3991 ft | 231 kts | 164° |
| 2026-04-23 16:41 | -2.33607 | -80.04003 | 4006 ft | 232 kts | 164° |
| 2026-04-23 16:41 | -2.35157 | -80.03584 | 3995 ft | 231 kts | 165° |
| 2026-04-23 16:41 | -2.36727 | -80.03155 | 3982 ft | 232 kts | 160° |
| 2026-04-23 16:42 | -2.38097 | -80.02355 | 3982 ft | 230 kts | 134° |
| 2026-04-23 16:42 | -2.38959 | -80.01026 | 3957 ft | 227 kts | 103° |
| 2026-04-23 16:42 | -2.38886 | -79.99497 | 3700 ft | 222 kts | 62° |
| 2026-04-23 16:42 | -2.37839 | -79.98451 | 3535 ft | 212 kts | 21° |
| 2026-04-23 16:43 | -2.36412 | -79.98286 | 3359 ft | 204 kts | 347° |
| 2026-04-23 16:43 | -2.35054 | -79.98690 | 3162 ft | 201 kts | 345° |
| 2026-04-23 16:43 | -2.33687 | -79.98756 | 2865 ft | 200 kts | 21° |
| 2026-04-23 16:43 | -2.32487 | -79.98078 | 2627 ft | 195 kts | 32° |
| 2026-04-23 16:44 | -2.31345 | -79.97375 | 2312 ft | 187 kts | 30° |
| 2026-04-23 16:44 | -2.30252 | -79.96733 | 2090 ft | 174 kts | 29° |
| 2026-04-23 16:44 | -2.29247 | -79.96152 | 1890 ft | 162 kts | 28° |
| 2026-04-23 16:44 | -2.28266 | -79.95608 | 1550 ft | 159 kts | 28° |
| 2026-04-23 16:45 | -2.27304 | -79.95090 | 1224 ft | 155 kts | 29° |
| 2026-04-23 16:45 | -2.26378 | -79.94597 | 893 ft | 149 kts | 30° |
| 2026-04-23 16:45 | -2.25480 | -79.94127 | 565 ft | 142 kts | 31° |
| 2026-04-23 16:45 | -2.24572 | -79.93652 | 442 ft | 158 kts | 30° |
| 2026-04-23 16:46 | -2.23603 | -79.93145 | 587 ft | 144 kts | 31° |
| 2026-04-23 16:46 | -2.22772 | -79.92703 | 479 ft | 130 kts | 34° |
| 2026-04-23 16:46 | -2.22011 | -79.92184 | 496 ft | 123 kts | 38° |
| 2026-04-23 16:46 | -2.21315 | -79.91678 | 505 ft | 129 kts | 38° |
| 2026-04-23 16:47 | -2.20643 | -79.91218 | 493 ft | 119 kts | 36° |
| 2026-04-23 16:47 | -2.19901 | -79.90751 | 674 ft | 129 kts | 34° |
| 2026-04-23 16:47 | -2.19048 | -79.90260 | 714 ft | 153 kts | 32° |
| 2026-04-23 16:47 | -2.18152 | -79.89741 | 487 ft | 142 kts | 31° |
| 2026-04-23 16:48 | -2.17321 | -79.89294 | 215 ft | 133 kts | 37° |
| 2026-04-23 16:48 | -2.16556 | -79.88840 | 42 ft | 117 kts | 36° |
| 2026-04-23 16:48 | -2.16032 | -79.88529 | 35 ft | 57 kts | 32° |
| 2026-04-23 16:48 | -2.15752 | -79.88371 | 32 ft | 29 kts | 31° |
| 2026-04-23 16:49 | -2.15635 | -79.88298 | 31 ft | 28 kts | 34° |
| 2026-04-23 16:49 | -2.15412 | -79.88174 | 30 ft | 26 kts | 30° |
| 2026-04-23 16:49 | -2.15295 | -79.88161 | 30 ft | 13 kts | 304° |
| 2026-04-23 16:49 | -2.15292 | -79.88167 | 30 ft | 0 kts | 304° |
| 2026-04-23 16:50 | -2.15290 | -79.88170 | 30 ft | 1 kts | 304° |
| 2026-04-23 16:50 | -2.15278 | -79.88190 | 30 ft | 4 kts | 297° |
| 2026-04-23 16:50 | -2.15260 | -79.88226 | 30 ft | 6 kts | 297° |
| 2026-04-23 16:50 | -2.15233 | -79.88275 | 30 ft | 8 kts | 299° |
| 2026-04-23 16:51 | -2.15203 | -79.88329 | 31 ft | 9 kts | 300° |
| 2026-04-23 16:51 | -2.15169 | -79.88384 | 31 ft | 8 kts | 309° |
| 2026-04-23 16:51 | -2.15124 | -79.88397 | 31 ft | 0 kts | 16° |
| 2026-04-23 16:51 | -2.15115 | -79.88391 | 31 ft | 2 kts | 29° |
| 2026-04-23 16:52 | -2.15098 | -79.88382 | 31 ft | 3 kts | 30° |
| 2026-04-23 16:52 | -2.15071 | -79.88365 | 31 ft | 5 kts | 32° |
| 2026-04-23 16:52 | -2.15034 | -79.88343 | 31 ft | 6 kts | 31° |
| 2026-04-23 16:52 | -2.14988 | -79.88329 | 31 ft | 6 kts | 334° |
| 2026-04-23 16:53 | -2.14960 | -79.88371 | 31 ft | 7 kts | 301° |
| 2026-04-23 16:53 | -2.14950 | -79.88388 | 32 ft | 0 kts | 301° |
| 2026-04-23 16:53 | -2.14948 | -79.88390 | 32 ft | 0 kts | 301° |